Neosho Rapids, Kansas
Current Conditions -  °F | °C
As of 5:53 PM on Saturday 22 Nov 2014 (Local Time) from KEMP Reporting Station
Broken Clouds Broken Clouds  
Wind Chill: 54°   Ceiling: 1800
Heat Index: 54°   Visibility: 10mi
Dew Point: 52°   Wind: 17mph
Humidity: 93%   Direction: 160°SSE
Pressure: 29.73"   Gusts: NA
Location:  38.37°N, 95.99°W
Report Text: KEMP 222353Z AUTO 16015KT 10SM BKN018 12/11 A2973 RMK AO2 SLP071 T01220111 10161 20122 56012
Loading
Personal Weather Stations






























Interactive Weather Map New forecast layout! Learn more

10-Day Weather Forecast

Advertisements
Track Severe Weather on mobile